sensor_id;sensor_type;location;lat;lon;timestamp;P1;durP1;ratioP1;P2;durP2;ratioP2
1993;SDS011;998;49.906;10.908;2024-03-02T00:00:31;32.77;;;16.90;;
1993;SDS011;998;49.906;10.908;2024-03-02T00:02:58;23.83;;;14.33;;
1993;SDS011;998;49.906;10.908;2024-03-02T00:05:25;24.37;;;15.00;;
1993;SDS011;998;49.906;10.908;2024-03-02T00:07:53;22.87;;;13.70;;
1993;SDS011;998;49.906;10.908;2024-03-02T00:10:22;28.33;;;15.33;;
1993;SDS011;998;49.906;10.908;2024-03-02T00:12:56;24.60;;;13.60;;
1993;SDS011;998;49.906;10.908;2024-03-02T00:15:31;25.37;;;15.20;;
1993;SDS011;998;49.906;10.908;2024-03-02T00:18:10;26.20;;;14.60;;
1993;SDS011;998;49.906;10.908;2024-03-02T00:20:39;24.70;;;15.63;;
1993;SDS011;998;49.906;10.908;2024-03-02T00:23:07;27.17;;;16.17;;
1993;SDS011;998;49.906;10.908;2024-03-02T00:25:39;28.40;;;15.80;;
1993;SDS011;998;49.906;10.908;2024-03-02T00:28:16;26.50;;;15.53;;
1993;SDS011;998;49.906;10.908;2024-03-02T00:30:55;20.77;;;14.00;;
1993;SDS011;998;49.906;10.908;2024-03-02T00:33:25;30.60;;;15.20;;
1993;SDS011;998;49.906;10.908;2024-03-02T00:35:54;24.37;;;14.60;;
1993;SDS011;998;49.906;10.908;2024-03-02T00:38:22;24.70;;;16.40;;
1993;SDS011;998;49.906;10.908;2024-03-02T00:40:50;28.27;;;16.20;;
1993;SDS011;998;49.906;10.908;2024-03-02T00:43:39;33.47;;;16.37;;
1993;SDS011;998;49.906;10.908;2024-03-02T00:46:09;25.33;;;14.73;;
1993;SDS011;998;49.906;10.908;2024-03-02T00:48:39;22.50;;;14.10;;
1993;SDS011;998;49.906;10.908;2024-03-02T00:51:14;30.43;;;15.50;;
1993;SDS011;998;49.906;10.908;2024-03-02T00:53:41;25.60;;;15.40;;
1993;SDS011;998;49.906;10.908;2024-03-02T00:56:09;30.77;;;16.50;;
1993;SDS011;998;49.906;10.908;2024-03-02T00:58:39;27.90;;;15.60;;
1993;SDS011;998;49.906;10.908;2024-03-02T01:01:07;37.73;;;16.47;;
1993;SDS011;998;49.906;10.908;2024-03-02T01:03:35;32.73;;;14.70;;
1993;SDS011;998;49.906;10.908;2024-03-02T01:06:04;22.83;;;14.53;;
1993;SDS011;998;49.906;10.908;2024-03-02T01:08:32;23.30;;;14.27;;
1993;SDS011;998;49.906;10.908;2024-03-02T01:11:00;25.03;;;15.97;;
1993;SDS011;998;49.906;10.908;2024-03-02T01:13:28;29.30;;;16.77;;
1993;SDS011;998;49.906;10.908;2024-03-02T01:15:57;24.40;;;15.43;;
1993;SDS011;998;49.906;10.908;2024-03-02T01:18:24;25.23;;;15.63;;
1993;SDS011;998;49.906;10.908;2024-03-02T01:20:52;25.13;;;16.57;;
1993;SDS011;998;49.906;10.908;2024-03-02T01:23:21;36.50;;;18.50;;
1993;SDS011;998;49.906;10.908;2024-03-02T01:25:53;29.20;;;17.37;;
1993;SDS011;998;49.906;10.908;2024-03-02T01:28:29;32.23;;;16.70;;
1993;SDS011;998;49.906;10.908;2024-03-02T01:30:58;25.73;;;16.03;;
1993;SDS011;998;49.906;10.908;2024-03-02T01:33:27;35.00;;;17.80;;
1993;SDS011;998;49.906;10.908;2024-03-02T01:35:54;30.03;;;15.80;;
1993;SDS011;998;49.906;10.908;2024-03-02T01:38:22;35.43;;;18.23;;
1993;SDS011;998;49.906;10.908;2024-03-02T01:40:49;39.13;;;16.80;;
1993;SDS011;998;49.906;10.908;2024-03-02T01:43:17;29.40;;;16.03;;
1993;SDS011;998;49.906;10.908;2024-03-02T01:45:44;28.47;;;16.77;;
1993;SDS011;998;49.906;10.908;2024-03-02T01:48:14;24.00;;;15.57;;
1993;SDS011;998;49.906;10.908;2024-03-02T01:50:41;29.60;;;16.77;;
1993;SDS011;998;49.906;10.908;2024-03-02T01:53:08;28.97;;;17.30;;
1993;SDS011;998;49.906;10.908;2024-03-02T01:55:36;31.27;;;17.33;;
1993;SDS011;998;49.906;10.908;2024-03-02T01:58:09;25.17;;;15.37;;
1993;SDS011;998;49.906;10.908;2024-03-02T02:00:36;28.17;;;15.93;;
1993;SDS011;998;49.906;10.908;2024-03-02T02:03:04;30.20;;;17.70;;
1993;SDS011;998;49.906;10.908;2024-03-02T02:05:33;36.97;;;18.37;;
1993;SDS011;998;49.906;10.908;2024-03-02T02:08:01;32.97;;;18.63;;
1993;SDS011;998;49.906;10.908;2024-03-02T02:10:29;32.40;;;17.77;;
1993;SDS011;998;49.906;10.908;2024-03-02T02:12:56;30.97;;;17.13;;
1993;SDS011;998;49.906;10.908;2024-03-02T02:15:27;29.83;;;16.83;;
1993;SDS011;998;49.906;10.908;2024-03-02T02:17:55;32.47;;;18.50;;
1993;SDS011;998;49.906;10.908;2024-03-02T02:20:23;35.80;;;17.87;;
1993;SDS011;998;49.906;10.908;2024-03-02T02:22:59;35.00;;;16.20;;
1993;SDS011;998;49.906;10.908;2024-03-02T02:25:30;27.73;;;16.80;;
1993;SDS011;998;49.906;10.908;2024-03-02T02:28:11;34.60;;;16.67;;
1993;SDS011;998;49.906;10.908;2024-03-02T02:30:38;30.07;;;17.93;;
1993;SDS011;998;49.906;10.908;2024-03-02T02:33:05;31.07;;;16.50;;
1993;SDS011;998;49.906;10.908;2024-03-02T02:35:33;33.23;;;18.40;;
1993;SDS011;998;49.906;10.908;2024-03-02T02:38:01;31.33;;;16.87;;
1993;SDS011;998;49.906;10.908;2024-03-02T02:40:29;31.87;;;16.33;;
1993;SDS011;998;49.906;10.908;2024-03-02T02:42:57;29.13;;;16.50;;
1993;SDS011;998;49.906;10.908;2024-03-02T02:45:24;37.13;;;18.80;;
1993;SDS011;998;49.906;10.908;2024-03-02T02:47:52;25.47;;;15.33;;
1993;SDS011;998;49.906;10.908;2024-03-02T02:50:20;25.90;;;16.03;;
1993;SDS011;998;49.906;10.908;2024-03-02T02:52:47;31.90;;;17.63;;
1993;SDS011;998;49.906;10.908;2024-03-02T02:55:17;35.63;;;17.80;;
1993;SDS011;998;49.906;10.908;2024-03-02T02:57:44;30.27;;;17.87;;
1993;SDS011;998;49.906;10.908;2024-03-02T03:00:12;29.80;;;18.87;;
1993;SDS011;998;49.906;10.908;2024-03-02T03:02:41;34.00;;;19.03;;
1993;SDS011;998;49.906;10.908;2024-03-02T03:05:09;35.13;;;18.20;;
1993;SDS011;998;49.906;10.908;2024-03-02T03:07:37;30.23;;;17.30;;
1993;SDS011;998;49.906;10.908;2024-03-02T03:10:05;26.70;;;16.93;;
1993;SDS011;998;49.906;10.908;2024-03-02T03:12:35;31.43;;;16.97;;
1993;SDS011;998;49.906;10.908;2024-03-02T03:15:03;36.60;;;19.00;;
1993;SDS011;998;49.906;10.908;2024-03-02T03:17:32;30.63;;;16.70;;
1993;SDS011;998;49.906;10.908;2024-03-02T03:19:59;31.43;;;18.03;;
1993;SDS011;998;49.906;10.908;2024-03-02T03:22:33;27.67;;;17.40;;
1993;SDS011;998;49.906;10.908;2024-03-02T03:25:01;30.60;;;17.50;;
1993;SDS011;998;49.906;10.908;2024-03-02T03:27:30;31.07;;;18.20;;
1993;SDS011;998;49.906;10.908;2024-03-02T03:29:59;36.07;;;18.20;;
1993;SDS011;998;49.906;10.908;2024-03-02T03:32:26;34.23;;;19.13;;
1993;SDS011;998;49.906;10.908;2024-03-02T03:34:53;35.83;;;19.30;;
1993;SDS011;998;49.906;10.908;2024-03-02T03:37:21;27.43;;;16.10;;
1993;SDS011;998;49.906;10.908;2024-03-02T03:39:49;34.73;;;17.23;;
1993;SDS011;998;49.906;10.908;2024-03-02T03:42:16;32.20;;;18.63;;
1993;SDS011;998;49.906;10.908;2024-03-02T03:44:44;33.13;;;19.60;;
1993;SDS011;998;49.906;10.908;2024-03-02T03:47:13;34.63;;;19.10;;
1993;SDS011;998;49.906;10.908;2024-03-02T03:49:40;36.70;;;17.80;;
1993;SDS011;998;49.906;10.908;2024-03-02T03:52:08;32.27;;;16.53;;
1993;SDS011;998;49.906;10.908;2024-03-02T03:54:35;28.23;;;16.80;;
1993;SDS011;998;49.906;10.908;2024-03-02T03:57:03;31.33;;;16.70;;
1993;SDS011;998;49.906;10.908;2024-03-02T03:59:43;31.50;;;17.10;;
1993;SDS011;998;49.906;10.908;2024-03-02T04:02:13;36.57;;;16.73;;
1993;SDS011;998;49.906;10.908;2024-03-02T04:04:40;26.93;;;16.47;;
1993;SDS011;998;49.906;10.908;2024-03-02T04:07:08;38.07;;;19.57;;
1993;SDS011;998;49.906;10.908;2024-03-02T04:09:36;26.77;;;15.97;;
1993;SDS011;998;49.906;10.908;2024-03-02T04:12:04;25.93;;;17.30;;
1993;SDS011;998;49.906;10.908;2024-03-02T04:14:48;27.50;;;18.07;;
1993;SDS011;998;49.906;10.908;2024-03-02T04:17:16;24.77;;;16.17;;
1993;SDS011;998;49.906;10.908;2024-03-02T04:19:43;24.43;;;15.90;;
1993;SDS011;998;49.906;10.908;2024-03-02T04:22:11;29.40;;;17.57;;
1993;SDS011;998;49.906;10.908;2024-03-02T04:24:38;26.20;;;16.20;;
1993;SDS011;998;49.906;10.908;2024-03-02T04:27:06;36.93;;;18.57;;
1993;SDS011;998;49.906;10.908;2024-03-02T04:29:36;29.37;;;15.77;;
1993;SDS011;998;49.906;10.908;2024-03-02T04:32:06;32.20;;;16.60;;
1993;SDS011;998;49.906;10.908;2024-03-02T04:34:42;28.20;;;18.73;;
1993;SDS011;998;49.906;10.908;2024-03-02T04:37:10;32.43;;;19.23;;
1993;SDS011;998;49.906;10.908;2024-03-02T04:39:39;28.80;;;16.27;;
1993;SDS011;998;49.906;10.908;2024-03-02T04:42:13;37.40;;;18.20;;
1993;SDS011;998;49.906;10.908;2024-03-02T04:44:40;35.23;;;18.90;;
1993;SDS011;998;49.906;10.908;2024-03-02T04:47:07;36.67;;;19.30;;
1993;SDS011;998;49.906;10.908;2024-03-02T04:49:36;27.70;;;16.37;;
1993;SDS011;998;49.906;10.908;2024-03-02T04:52:03;35.73;;;19.17;;
1993;SDS011;998;49.906;10.908;2024-03-02T04:54:31;32.50;;;16.73;;
1993;SDS011;998;49.906;10.908;2024-03-02T04:57:18;33.97;;;18.90;;
1993;SDS011;998;49.906;10.908;2024-03-02T04:59:46;26.63;;;15.90;;
1993;SDS011;998;49.906;10.908;2024-03-02T05:02:13;30.37;;;15.83;;
1993;SDS011;998;49.906;10.908;2024-03-02T05:04:41;31.87;;;16.10;;
1993;SDS011;998;49.906;10.908;2024-03-02T05:07:09;27.80;;;16.10;;
1993;SDS011;998;49.906;10.908;2024-03-02T05:09:36;31.90;;;18.57;;
1993;SDS011;998;49.906;10.908;2024-03-02T05:12:04;30.67;;;16.23;;
1993;SDS011;998;49.906;10.908;2024-03-02T05:14:48;27.37;;;15.90;;
1993;SDS011;998;49.906;10.908;2024-03-02T05:17:15;29.20;;;14.87;;
1993;SDS011;998;49.906;10.908;2024-03-02T05:19:44;29.00;;;15.70;;
1993;SDS011;998;49.906;10.908;2024-03-02T05:22:12;31.63;;;18.13;;
1993;SDS011;998;49.906;10.908;2024-03-02T05:24:39;34.83;;;16.80;;
1993;SDS011;998;49.906;10.908;2024-03-02T05:27:07;27.03;;;14.43;;
1993;SDS011;998;49.906;10.908;2024-03-02T05:29:34;34.00;;;16.80;;
1993;SDS011;998;49.906;10.908;2024-03-02T05:32:02;33.00;;;16.53;;
1993;SDS011;998;49.906;10.908;2024-03-02T05:34:29;27.77;;;16.03;;
1993;SDS011;998;49.906;10.908;2024-03-02T05:36:59;29.73;;;16.47;;
1993;SDS011;998;49.906;10.908;2024-03-02T05:39:27;28.30;;;16.03;;
1993;SDS011;998;49.906;10.908;2024-03-02T05:41:54;26.80;;;16.00;;
1993;SDS011;998;49.906;10.908;2024-03-02T05:44:21;28.17;;;16.33;;
1993;SDS011;998;49.906;10.908;2024-03-02T05:46:49;24.17;;;14.10;;
1993;SDS011;998;49.906;10.908;2024-03-02T05:49:16;27.13;;;15.70;;
1993;SDS011;998;49.906;10.908;2024-03-02T05:51:43;27.47;;;14.37;;
1993;SDS011;998;49.906;10.908;2024-03-02T05:54:12;29.17;;;16.53;;
1993;SDS011;998;49.906;10.908;2024-03-02T05:56:40;22.47;;;14.40;;
1993;SDS011;998;49.906;10.908;2024-03-02T05:59:07;23.47;;;13.43;;
1993;SDS011;998;49.906;10.908;2024-03-02T06:01:38;31.30;;;16.00;;
1993;SDS011;998;49.906;10.908;2024-03-02T06:04:05;23.10;;;15.10;;
1993;SDS011;998;49.906;10.908;2024-03-02T06:06:33;25.83;;;14.60;;
1993;SDS011;998;49.906;10.908;2024-03-02T06:09:00;28.40;;;16.67;;
1993;SDS011;998;49.906;10.908;2024-03-02T06:11:32;32.47;;;17.20;;
1993;SDS011;998;49.906;10.908;2024-03-02T06:13:59;25.93;;;15.43;;
1993;SDS011;998;49.906;10.908;2024-03-02T06:16:26;28.00;;;15.70;;
1993;SDS011;998;49.906;10.908;2024-03-02T06:18:53;23.47;;;14.97;;
1993;SDS011;998;49.906;10.908;2024-03-02T06:21:23;32.50;;;16.57;;
1993;SDS011;998;49.906;10.908;2024-03-02T06:23:50;24.87;;;13.80;;
1993;SDS011;998;49.906;10.908;2024-03-02T06:26:18;24.33;;;14.60;;
1993;SDS011;998;49.906;10.908;2024-03-02T06:28:47;22.90;;;15.00;;
1993;SDS011;998;49.906;10.908;2024-03-02T06:31:14;26.33;;;15.77;;
1993;SDS011;998;49.906;10.908;2024-03-02T06:33:42;24.83;;;13.67;;
1993;SDS011;998;49.906;10.908;2024-03-02T06:36:09;28.37;;;13.87;;
1993;SDS011;998;49.906;10.908;2024-03-02T06:38:37;30.07;;;14.27;;
1993;SDS011;998;49.906;10.908;2024-03-02T06:41:05;27.77;;;14.37;;
1993;SDS011;998;49.906;10.908;2024-03-02T06:43:33;27.43;;;16.43;;
1993;SDS011;998;49.906;10.908;2024-03-02T06:46:02;30.53;;;14.80;;
1993;SDS011;998;49.906;10.908;2024-03-02T06:48:30;25.40;;;15.27;;
1993;SDS011;998;49.906;10.908;2024-03-02T06:50:57;29.33;;;15.00;;
1993;SDS011;998;49.906;10.908;2024-03-02T06:53:24;22.80;;;15.07;;
1993;SDS011;998;49.906;10.908;2024-03-02T06:55:52;22.40;;;14.40;;
1993;SDS011;998;49.906;10.908;2024-03-02T06:58:22;26.27;;;14.60;;
1993;SDS011;998;49.906;10.908;2024-03-02T07:00:55;24.07;;;13.80;;
1993;SDS011;998;49.906;10.908;2024-03-02T07:03:23;24.80;;;13.90;;
1993;SDS011;998;49.906;10.908;2024-03-02T07:05:50;30.20;;;15.70;;
1993;SDS011;998;49.906;10.908;2024-03-02T07:08:18;31.07;;;15.20;;
1993;SDS011;998;49.906;10.908;2024-03-02T07:10:45;31.00;;;14.93;;
1993;SDS011;998;49.906;10.908;2024-03-02T07:13:13;29.30;;;14.80;;
1993;SDS011;998;49.906;10.908;2024-03-02T07:15:46;26.23;;;15.53;;
1993;SDS011;998;49.906;10.908;2024-03-02T07:18:45;23.30;;;13.30;;
1993;SDS011;998;49.906;10.908;2024-03-02T07:21:17;22.33;;;14.60;;
1993;SDS011;998;49.906;10.908;2024-03-02T07:23:44;25.43;;;13.97;;
1993;SDS011;998;49.906;10.908;2024-03-02T07:26:11;24.33;;;15.60;;
1993;SDS011;998;49.906;10.908;2024-03-02T07:28:40;23.47;;;12.83;;
1993;SDS011;998;49.906;10.908;2024-03-02T07:31:09;21.10;;;14.67;;
1993;SDS011;998;49.906;10.908;2024-03-02T07:33:39;28.37;;;14.97;;
1993;SDS011;998;49.906;10.908;2024-03-02T07:36:14;30.27;;;13.70;;
1993;SDS011;998;49.906;10.908;2024-03-02T07:38:45;21.57;;;11.47;;
1993;SDS011;998;49.906;10.908;2024-03-02T07:41:15;28.07;;;14.10;;
1993;SDS011;998;49.906;10.908;2024-03-02T07:43:43;22.90;;;14.47;;
1993;SDS011;998;49.906;10.908;2024-03-02T07:46:11;27.30;;;13.87;;
1993;SDS011;998;49.906;10.908;2024-03-02T07:48:44;25.10;;;13.70;;
1993;SDS011;998;49.906;10.908;2024-03-02T07:51:11;20.47;;;13.17;;
1993;SDS011;998;49.906;10.908;2024-03-02T07:53:40;28.87;;;14.60;;
1993;SDS011;998;49.906;10.908;2024-03-02T07:56:08;23.47;;;13.57;;
1993;SDS011;998;49.906;10.908;2024-03-02T07:58:35;22.33;;;11.40;;
1993;SDS011;998;49.906;10.908;2024-03-02T08:01:03;22.30;;;13.00;;
1993;SDS011;998;49.906;10.908;2024-03-02T08:03:30;23.27;;;12.83;;
1993;SDS011;998;49.906;10.908;2024-03-02T08:06:08;21.97;;;13.70;;
1993;SDS011;998;49.906;10.908;2024-03-02T08:08:35;21.23;;;13.27;;
1993;SDS011;998;49.906;10.908;2024-03-02T08:11:04;23.53;;;14.10;;
1993;SDS011;998;49.906;10.908;2024-03-02T08:13:31;28.40;;;14.30;;
1993;SDS011;998;49.906;10.908;2024-03-02T08:15:58;25.63;;;13.80;;
1993;SDS011;998;49.906;10.908;2024-03-02T08:18:28;25.03;;;14.17;;
1993;SDS011;998;49.906;10.908;2024-03-02T08:20:56;25.17;;;14.10;;
1993;SDS011;998;49.906;10.908;2024-03-02T08:23:23;24.90;;;12.30;;
1993;SDS011;998;49.906;10.908;2024-03-02T08:25:51;19.60;;;11.67;;
1993;SDS011;998;49.906;10.908;2024-03-02T08:28:20;18.50;;;10.73;;
1993;SDS011;998;49.906;10.908;2024-03-02T08:30:47;20.37;;;13.00;;
1993;SDS011;998;49.906;10.908;2024-03-02T08:33:32;20.17;;;11.90;;
1993;SDS011;998;49.906;10.908;2024-03-02T08:36:00;21.60;;;12.80;;
1993;SDS011;998;49.906;10.908;2024-03-02T08:38:28;20.73;;;11.43;;
1993;SDS011;998;49.906;10.908;2024-03-02T08:40:55;16.30;;;9.50;;
1993;SDS011;998;49.906;10.908;2024-03-02T08:43:24;22.13;;;12.20;;
1993;SDS011;998;49.906;10.908;2024-03-02T08:45:52;18.50;;;11.00;;
1993;SDS011;998;49.906;10.908;2024-03-02T08:48:20;16.63;;;11.40;;
1993;SDS011;998;49.906;10.908;2024-03-02T08:50:47;15.60;;;10.30;;
1993;SDS011;998;49.906;10.908;2024-03-02T08:53:14;15.93;;;10.83;;
1993;SDS011;998;49.906;10.908;2024-03-02T08:55:43;22.70;;;12.37;;
1993;SDS011;998;49.906;10.908;2024-03-02T08:58:18;16.67;;;10.20;;
1993;SDS011;998;49.906;10.908;2024-03-02T09:00:47;18.67;;;10.93;;
1993;SDS011;998;49.906;10.908;2024-03-02T09:03:28;19.10;;;11.77;;
1993;SDS011;998;49.906;10.908;2024-03-02T09:05:58;21.57;;;11.93;;
1993;SDS011;998;49.906;10.908;2024-03-02T09:08:25;19.87;;;12.43;;
1993;SDS011;998;49.906;10.908;2024-03-02T09:11:11;19.70;;;12.20;;
1993;SDS011;998;49.906;10.908;2024-03-02T09:13:38;15.47;;;9.70;;
1993;SDS011;998;49.906;10.908;2024-03-02T09:16:08;19.77;;;10.43;;
1993;SDS011;998;49.906;10.908;2024-03-02T09:18:36;18.73;;;11.30;;
1993;SDS011;998;49.906;10.908;2024-03-02T09:21:04;18.30;;;10.80;;
1993;SDS011;998;49.906;10.908;2024-03-02T09:23:31;16.73;;;10.40;;
1993;SDS011;998;49.906;10.908;2024-03-02T09:25:59;19.50;;;10.70;;
1993;SDS011;998;49.906;10.908;2024-03-02T09:28:26;16.70;;;10.60;;
1993;SDS011;998;49.906;10.908;2024-03-02T09:31:02;17.27;;;10.00;;
1993;SDS011;998;49.906;10.908;2024-03-02T09:33:31;17.03;;;10.40;;
1993;SDS011;998;49.906;10.908;2024-03-02T09:35:58;15.17;;;9.73;;
1993;SDS011;998;49.906;10.908;2024-03-02T09:38:30;15.30;;;9.97;;
1993;SDS011;998;49.906;10.908;2024-03-02T09:41:01;18.93;;;10.57;;
1993;SDS011;998;49.906;10.908;2024-03-02T09:43:28;16.90;;;11.13;;
1993;SDS011;998;49.906;10.908;2024-03-02T09:45:56;16.30;;;10.37;;
1993;SDS011;998;49.906;10.908;2024-03-02T09:48:23;17.50;;;9.53;;
1993;SDS011;998;49.906;10.908;2024-03-02T09:50:52;19.27;;;11.87;;
1993;SDS011;998;49.906;10.908;2024-03-02T09:53:20;16.67;;;10.00;;
1993;SDS011;998;49.906;10.908;2024-03-02T09:55:48;19.10;;;11.30;;
1993;SDS011;998;49.906;10.908;2024-03-02T09:58:16;17.10;;;10.23;;
1993;SDS011;998;49.906;10.908;2024-03-02T10:00:43;13.60;;;8.67;;
1993;SDS011;998;49.906;10.908;2024-03-02T10:03:11;12.87;;;9.33;;
1993;SDS011;998;49.906;10.908;2024-03-02T10:05:39;16.57;;;9.70;;
1993;SDS011;998;49.906;10.908;2024-03-02T10:08:08;16.80;;;10.77;;
1993;SDS011;998;49.906;10.908;2024-03-02T10:10:35;13.70;;;9.10;;
1993;SDS011;998;49.906;10.908;2024-03-02T10:13:05;15.83;;;9.60;;
1993;SDS011;998;49.906;10.908;2024-03-02T10:15:35;16.03;;;10.07;;
1993;SDS011;998;49.906;10.908;2024-03-02T10:18:03;14.47;;;9.07;;
1993;SDS011;998;49.906;10.908;2024-03-02T10:20:34;16.80;;;10.43;;
1993;SDS011;998;49.906;10.908;2024-03-02T10:23:10;16.37;;;10.43;;
1993;SDS011;998;49.906;10.908;2024-03-02T10:25:41;15.93;;;9.77;;
1993;SDS011;998;49.906;10.908;2024-03-02T10:28:10;19.40;;;10.13;;
1993;SDS011;998;49.906;10.908;2024-03-02T10:30:37;15.60;;;10.67;;
1993;SDS011;998;49.906;10.908;2024-03-02T10:33:05;17.47;;;11.10;;
1993;SDS011;998;49.906;10.908;2024-03-02T10:35:33;15.00;;;9.60;;
1993;SDS011;998;49.906;10.908;2024-03-02T10:38:03;15.07;;;9.17;;
1993;SDS011;998;49.906;10.908;2024-03-02T10:40:32;14.63;;;8.57;;
1993;SDS011;998;49.906;10.908;2024-03-02T10:43:00;14.80;;;8.90;;
1993;SDS011;998;49.906;10.908;2024-03-02T10:45:31;12.23;;;8.83;;
1993;SDS011;998;49.906;10.908;2024-03-02T10:47:58;13.00;;;8.50;;
1993;SDS011;998;49.906;10.908;2024-03-02T10:50:32;15.97;;;8.20;;
1993;SDS011;998;49.906;10.908;2024-03-02T10:53:07;14.00;;;8.33;;
1993;SDS011;998;49.906;10.908;2024-03-02T10:55:35;16.40;;;9.77;;
1993;SDS011;998;49.906;10.908;2024-03-02T10:58:02;12.30;;;8.47;;
1993;SDS011;998;49.906;10.908;2024-03-02T11:00:33;14.30;;;8.23;;
1993;SDS011;998;49.906;10.908;2024-03-02T11:03:05;11.70;;;6.97;;
1993;SDS011;998;49.906;10.908;2024-03-02T11:05:36;16.53;;;9.60;;
1993;SDS011;998;49.906;10.908;2024-03-02T11:08:18;11.33;;;7.27;;
1993;SDS011;998;49.906;10.908;2024-03-02T11:10:50;11.40;;;6.90;;
1993;SDS011;998;49.906;10.908;2024-03-02T11:13:20;10.83;;;7.17;;
1993;SDS011;998;49.906;10.908;2024-03-02T11:16:03;12.80;;;8.47;;
1993;SDS011;998;49.906;10.908;2024-03-02T11:18:33;11.33;;;7.47;;
1993;SDS011;998;49.906;10.908;2024-03-02T11:21:01;8.77;;;6.13;;
1993;SDS011;998;49.906;10.908;2024-03-02T11:23:33;11.20;;;5.93;;
1993;SDS011;998;49.906;10.908;2024-03-02T11:26:21;12.67;;;6.37;;
1993;SDS011;998;49.906;10.908;2024-03-02T11:28:49;12.20;;;5.83;;
1993;SDS011;998;49.906;10.908;2024-03-02T11:31:17;17.93;;;6.60;;
1993;SDS011;998;49.906;10.908;2024-03-02T11:33:58;7.87;;;4.90;;
1993;SDS011;998;49.906;10.908;2024-03-02T11:36:44;9.97;;;5.43;;
1993;SDS011;998;49.906;10.908;2024-03-02T11:39:18;8.83;;;5.67;;
1993;SDS011;998;49.906;10.908;2024-03-02T11:41:47;7.10;;;4.67;;
1993;SDS011;998;49.906;10.908;2024-03-02T11:44:14;9.50;;;5.27;;
1993;SDS011;998;49.906;10.908;2024-03-02T11:46:43;7.60;;;5.40;;
1993;SDS011;998;49.906;10.908;2024-03-02T11:49:20;7.50;;;5.13;;
1993;SDS011;998;49.906;10.908;2024-03-02T11:52:04;9.83;;;5.90;;
1993;SDS011;998;49.906;10.908;2024-03-02T11:54:40;8.43;;;5.30;;
1993;SDS011;998;49.906;10.908;2024-03-02T11:57:15;9.23;;;5.53;;
1993;SDS011;998;49.906;10.908;2024-03-02T11:59:44;6.33;;;4.27;;
1993;SDS011;998;49.906;10.908;2024-03-02T12:02:14;8.67;;;4.87;;
1993;SDS011;998;49.906;10.908;2024-03-02T12:04:43;7.30;;;4.53;;
1993;SDS011;998;49.906;10.908;2024-03-02T12:07:11;9.80;;;5.03;;
1993;SDS011;998;49.906;10.908;2024-03-02T12:09:44;8.27;;;4.77;;
1993;SDS011;998;49.906;10.908;2024-03-02T12:12:12;7.77;;;5.07;;
1993;SDS011;998;49.906;10.908;2024-03-02T12:14:50;6.70;;;4.43;;
1993;SDS011;998;49.906;10.908;2024-03-02T12:17:20;8.27;;;4.50;;
1993;SDS011;998;49.906;10.908;2024-03-02T12:19:55;7.60;;;4.93;;
1993;SDS011;998;49.906;10.908;2024-03-02T12:22:22;7.20;;;4.80;;
1993;SDS011;998;49.906;10.908;2024-03-02T12:24:50;6.87;;;4.13;;
1993;SDS011;998;49.906;10.908;2024-03-02T12:27:17;8.13;;;4.60;;
1993;SDS011;998;49.906;10.908;2024-03-02T12:29:47;9.43;;;5.00;;
1993;SDS011;998;49.906;10.908;2024-03-02T12:32:15;8.07;;;4.40;;
1993;SDS011;998;49.906;10.908;2024-03-02T12:34:42;6.40;;;4.30;;
1993;SDS011;998;49.906;10.908;2024-03-02T12:37:23;9.83;;;5.50;;
1993;SDS011;998;49.906;10.908;2024-03-02T12:39:50;8.07;;;4.87;;
1993;SDS011;998;49.906;10.908;2024-03-02T12:42:19;6.20;;;4.30;;
1993;SDS011;998;49.906;10.908;2024-03-02T12:44:47;8.43;;;4.13;;
1993;SDS011;998;49.906;10.908;2024-03-02T12:47:15;9.37;;;6.70;;
1993;SDS011;998;49.906;10.908;2024-03-02T12:49:42;9.07;;;6.20;;
1993;SDS011;998;49.906;10.908;2024-03-02T12:52:11;8.40;;;5.03;;
1993;SDS011;998;49.906;10.908;2024-03-02T12:54:39;9.10;;;5.80;;
1993;SDS011;998;49.906;10.908;2024-03-02T12:57:07;11.40;;;5.80;;
1993;SDS011;998;49.906;10.908;2024-03-02T12:59:34;11.10;;;8.07;;
1993;SDS011;998;49.906;10.908;2024-03-02T13:02:16;16.93;;;8.53;;
1993;SDS011;998;49.906;10.908;2024-03-02T13:04:44;9.80;;;6.40;;
1993;SDS011;998;49.906;10.908;2024-03-02T13:07:11;11.27;;;7.33;;
1993;SDS011;998;49.906;10.908;2024-03-02T13:09:40;11.47;;;8.20;;
1993;SDS011;998;49.906;10.908;2024-03-02T13:12:08;10.00;;;6.50;;
1993;SDS011;998;49.906;10.908;2024-03-02T13:14:36;10.27;;;7.07;;
1993;SDS011;998;49.906;10.908;2024-03-02T13:17:04;9.60;;;6.73;;
1993;SDS011;998;49.906;10.908;2024-03-02T13:19:34;11.60;;;7.00;;
1993;SDS011;998;49.906;10.908;2024-03-02T13:22:01;11.00;;;7.80;;
1993;SDS011;998;49.906;10.908;2024-03-02T13:24:31;13.40;;;8.00;;
1993;SDS011;998;49.906;10.908;2024-03-02T13:26:58;11.63;;;8.30;;
1993;SDS011;998;49.906;10.908;2024-03-02T13:29:26;12.30;;;8.90;;
1993;SDS011;998;49.906;10.908;2024-03-02T13:31:53;12.43;;;7.93;;
1993;SDS011;998;49.906;10.908;2024-03-02T13:34:26;10.50;;;7.57;;
1993;SDS011;998;49.906;10.908;2024-03-02T13:36:53;10.70;;;7.43;;
1993;SDS011;998;49.906;10.908;2024-03-02T13:39:20;12.87;;;8.30;;
1993;SDS011;998;49.906;10.908;2024-03-02T13:41:48;9.63;;;6.83;;
1993;SDS011;998;49.906;10.908;2024-03-02T13:44:23;11.13;;;7.73;;
1993;SDS011;998;49.906;10.908;2024-03-02T13:46:50;10.17;;;7.30;;
1993;SDS011;998;49.906;10.908;2024-03-02T13:49:17;10.13;;;7.53;;
1993;SDS011;998;49.906;10.908;2024-03-02T13:51:56;11.93;;;7.27;;
1993;SDS011;998;49.906;10.908;2024-03-02T13:54:25;12.03;;;8.60;;
1993;SDS011;998;49.906;10.908;2024-03-02T13:56:52;11.67;;;7.50;;
1993;SDS011;998;49.906;10.908;2024-03-02T13:59:23;12.03;;;7.67;;
1993;SDS011;998;49.906;10.908;2024-03-02T14:01:50;10.70;;;7.70;;
1993;SDS011;998;49.906;10.908;2024-03-02T14:04:17;18.50;;;9.17;;
1993;SDS011;998;49.906;10.908;2024-03-02T14:06:45;9.30;;;6.10;;
1993;SDS011;998;49.906;10.908;2024-03-02T14:09:14;9.30;;;6.90;;
1993;SDS011;998;49.906;10.908;2024-03-02T14:11:41;11.17;;;7.23;;
1993;SDS011;998;49.906;10.908;2024-03-02T14:14:08;10.83;;;8.27;;
1993;SDS011;998;49.906;10.908;2024-03-02T14:16:35;9.33;;;7.03;;
1993;SDS011;998;49.906;10.908;2024-03-02T14:19:02;11.50;;;7.80;;
1993;SDS011;998;49.906;10.908;2024-03-02T14:21:35;10.60;;;8.00;;
1993;SDS011;998;49.906;10.908;2024-03-02T14:24:03;9.40;;;6.87;;
1993;SDS011;998;49.906;10.908;2024-03-02T14:26:33;11.07;;;7.10;;
1993;SDS011;998;49.906;10.908;2024-03-02T14:29:01;11.53;;;8.00;;
1993;SDS011;998;49.906;10.908;2024-03-02T14:31:45;9.90;;;6.70;;
1993;SDS011;998;49.906;10.908;2024-03-02T14:34:13;11.77;;;7.60;;
1993;SDS011;998;49.906;10.908;2024-03-02T14:36:40;10.40;;;7.17;;
1993;SDS011;998;49.906;10.908;2024-03-02T14:39:09;10.13;;;7.07;;
1993;SDS011;998;49.906;10.908;2024-03-02T14:41:38;12.57;;;8.23;;
1993;SDS011;998;49.906;10.908;2024-03-02T14:44:06;8.87;;;7.13;;
1993;SDS011;998;49.906;10.908;2024-03-02T14:46:36;10.40;;;6.97;;
1993;SDS011;998;49.906;10.908;2024-03-02T14:49:03;10.67;;;7.17;;
1993;SDS011;998;49.906;10.908;2024-03-02T14:51:31;12.20;;;8.77;;
1993;SDS011;998;49.906;10.908;2024-03-02T14:54:13;12.93;;;8.27;;
1993;SDS011;998;49.906;10.908;2024-03-02T14:56:42;10.77;;;7.87;;
1993;SDS011;998;49.906;10.908;2024-03-02T14:59:09;10.53;;;7.33;;
1993;SDS011;998;49.906;10.908;2024-03-02T15:01:37;11.90;;;8.40;;
1993;SDS011;998;49.906;10.908;2024-03-02T15:04:05;14.90;;;9.33;;
1993;SDS011;998;49.906;10.908;2024-03-02T15:06:32;12.20;;;7.70;;